createdAt,value
2019-02-15T00:00:49.507Z,102981.95
2019-02-15T00:03:17.777Z,102977.79
2019-02-15T00:05:46.040Z,102981.98
2019-02-15T00:08:14.314Z,102980.25
2019-02-15T00:10:42.608Z,102976.86
2019-02-15T00:13:13.706Z,102976.86
2019-02-15T00:15:40.897Z,102973.97
2019-02-15T00:18:30.125Z,102979.36
2019-02-15T00:23:37.213Z,102973.88
2019-02-15T00:26:05.474Z,102968.53
2019-02-15T00:28:33.743Z,102962.44
2019-02-15T00:31:01.992Z,102964.60
2019-02-15T00:33:30.271Z,102965.98
2019-02-15T00:35:58.532Z,102964.56
2019-02-15T00:38:26.785Z,102965.59
2019-02-15T00:40:55.070Z,102962.53
2019-02-15T00:43:23.300Z,102959.64
2019-02-15T00:46:10.686Z,102958.77
2019-02-15T00:48:38.928Z,102964.89
2019-02-15T00:51:26.309Z,102967.53
2019-02-15T00:54:13.674Z,102970.17
2019-02-15T00:57:01.065Z,102968.44
2019-02-15T00:59:48.431Z,102972.27
2019-02-15T01:02:35.809Z,102968.37
2019-02-15T01:08:31.319Z,102973.69
2019-02-15T01:11:18.682Z,102974.49
2019-02-15T01:16:25.889Z,102976.39
2019-02-15T01:18:54.172Z,102974.16
2019-02-15T01:21:22.424Z,102973.25
2019-02-15T01:23:50.679Z,102966.81
2019-02-15T01:32:05.990Z,102968.27
2019-02-15T01:34:53.384Z,102964.69
2019-02-15T01:37:40.753Z,102962.56
2019-02-15T01:40:28.144Z,102962.08
2019-02-15T01:43:15.514Z,102956.83
2019-02-15T01:46:02.904Z,102965.98
2019-02-15T01:48:31.158Z,102970.09
2019-02-15T01:50:59.428Z,102965.90
2019-02-15T01:53:27.697Z,102968.41
2019-02-15T01:55:55.952Z,102963.25
2019-02-15T01:58:24.207Z,102964.23
2019-02-15T02:00:52.488Z,102963.05
2019-02-15T02:03:20.745Z,102964.87
2019-02-15T02:05:49.027Z,102959.92
2019-02-15T02:11:06.246Z,102962.77
2019-02-15T02:13:34.501Z,102962.66
2019-02-15T02:16:02.763Z,102959.70
2019-02-15T02:18:31.019Z,102967.34
2019-02-15T02:20:59.304Z,102963.91
2019-02-15T02:23:27.559Z,102968.56
2019-02-15T02:25:55.814Z,102968.63
2019-02-15T02:28:24.081Z,102966.94
2019-02-15T02:30:52.362Z,102966.89
2019-02-15T02:33:20.618Z,102964.36
2019-02-15T02:35:48.874Z,102966.40
2019-02-15T02:38:17.140Z,102971.59
2019-02-15T02:40:45.454Z,102967.80
2019-02-15T02:43:13.674Z,102972.98
2019-02-15T02:45:41.928Z,102965.98
2019-02-15T02:48:10.194Z,102964.89
2019-02-15T02:50:38.467Z,102966.52
2019-02-15T02:53:06.734Z,102967.34
2019-02-15T02:55:35.013Z,102965.61
2019-02-15T02:58:03.263Z,102967.38
2019-02-15T03:00:33.725Z,102955.05
2019-02-15T03:03:01.524Z,102959.36
2019-02-15T03:05:29.776Z,102953.57
2019-02-15T03:07:58.033Z,102948.87
2019-02-15T03:10:26.318Z,102949.06
2019-02-15T03:12:54.586Z,102951.71
2019-02-15T03:15:22.851Z,102939.38
2019-02-15T03:17:51.106Z,102939.42
2019-02-15T03:20:30.501Z,102941.87
2019-02-15T03:22:49.361Z,102938.51
2019-02-15T03:25:17.627Z,102941.42
2019-02-15T03:27:45.882Z,102944.59
2019-02-15T03:30:14.157Z,102941.66
2019-02-15T03:32:42.401Z,102942.50
2019-02-15T03:35:10.671Z,102947.75
2019-02-15T03:37:58.051Z,102949.95
2019-02-15T03:43:15.269Z,102941.90
2019-02-15T03:48:32.499Z,102944.89
2019-02-15T03:51:00.767Z,102943.11
2019-02-15T03:53:29.021Z,102942.77
2019-02-15T03:55:57.280Z,102937.21
2019-02-15T03:58:25.547Z,102939.87
2019-02-15T04:00:53.821Z,102941.64
2019-02-15T04:03:22.070Z,102939.53
2019-02-15T04:05:50.339Z,102938.31
2019-02-15T04:08:18.600Z,102940.77
2019-02-15T04:10:46.873Z,102941.45
2019-02-15T04:13:15.160Z,102936.91
2019-02-15T04:15:43.432Z,102934.76
2019-02-15T04:18:11.680Z,102937.45
2019-02-15T04:20:39.947Z,102932.75
2019-02-15T04:23:08.234Z,102935.37
2019-02-15T04:25:36.476Z,102936.61
2019-02-15T04:28:04.762Z,102933.70
2019-02-15T04:30:33.005Z,102932.16
2019-02-15T04:33:01.260Z,102922.28
2019-02-15T04:35:29.516Z,102935.14
2019-02-15T04:37:57.784Z,102928.75
2019-02-15T04:40:26.050Z,102928.06
2019-02-15T04:42:54.317Z,102931.73
2019-02-15T04:45:22.578Z,102933.02
2019-02-15T04:47:50.835Z,102930.67
2019-02-15T04:50:19.100Z,102925.25
2019-02-15T04:52:47.374Z,102929.11
2019-02-15T04:55:15.625Z,102923.38
2019-02-15T04:57:43.880Z,102922.28
2019-02-15T05:00:12.242Z,102921.94
2019-02-15T05:02:40.498Z,102922.91
2019-02-15T05:05:08.807Z,102926.65
2019-02-15T05:07:37.059Z,102927.16
2019-02-15T05:10:45.360Z,102923.83
2019-02-15T05:13:13.634Z,102925.53
2019-02-15T05:15:41.893Z,102922.25
2019-02-15T05:18:10.153Z,102921.73
2019-02-15T05:20:38.420Z,102919.78
2019-02-15T05:23:06.685Z,102915.27
2019-02-15T05:25:35.926Z,102906.77
2019-02-15T05:28:04.189Z,102905.97
2019-02-15T05:30:32.464Z,102902.59
2019-02-15T05:33:00.722Z,102902.75
2019-02-15T05:35:28.987Z,102905.01
2019-02-15T05:37:57.249Z,102903.94
2019-02-15T05:40:25.512Z,102904.39
2019-02-15T05:42:53.833Z,102905.33
2019-02-15T05:45:22.046Z,102910.93
2019-02-15T05:47:50.309Z,102916.84
2019-02-15T05:50:18.579Z,102919.38
2019-02-15T05:52:46.907Z,102921.43
2019-02-15T05:55:15.163Z,102921.50
2019-02-15T05:57:43.424Z,102921.95
2019-02-15T06:00:11.703Z,102917.16
2019-02-15T06:02:39.964Z,102923.17
2019-02-15T06:05:41.958Z,102923.13
2019-02-15T06:08:10.219Z,102922.27
2019-02-15T06:10:38.477Z,102927.38
2019-02-15T06:13:06.734Z,102925.07
2019-02-15T06:15:34.987Z,102923.64
2019-02-15T06:18:03.264Z,102921.41
2019-02-15T06:20:50.867Z,102921.75
2019-02-15T06:23:19.134Z,102921.75
2019-02-15T06:25:47.396Z,102926.25
2019-02-15T06:28:15.661Z,102920.91
2019-02-15T06:30:43.930Z,102922.27
2019-02-15T06:33:12.182Z,102922.19
2019-02-15T06:35:40.467Z,102929.19
2019-02-15T06:38:09.007Z,102923.09
2019-02-15T06:40:37.267Z,102926.95
2019-02-15T06:43:05.531Z,102929.50
2019-02-15T06:45:33.791Z,102931.02
2019-02-15T06:48:02.070Z,102934.42
2019-02-15T06:50:30.315Z,102933.28
2019-02-15T06:52:58.576Z,102927.30
2019-02-15T06:55:26.835Z,102926.55
2019-02-15T06:57:55.100Z,102927.03
2019-02-15T07:03:21.451Z,102933.61
2019-02-15T07:05:49.723Z,102938.06
2019-02-15T07:08:17.988Z,102933.45
2019-02-15T07:10:58.465Z,102940.44
2019-02-15T07:13:26.736Z,102947.05
2019-02-15T07:15:55.015Z,102946.70
2019-02-15T07:18:23.273Z,102948.02
2019-02-15T07:20:51.540Z,102943.95
2019-02-15T07:23:19.800Z,102939.00
2019-02-15T07:25:48.077Z,102943.53
2019-02-15T07:28:16.340Z,102950.25
2019-02-15T07:30:44.595Z,102940.96
2019-02-15T07:33:12.871Z,102942.28
2019-02-15T07:35:41.131Z,102948.37
2019-02-15T07:38:09.397Z,102935.84
2019-02-15T07:40:37.676Z,102940.12
2019-02-15T07:43:05.939Z,102935.15
2019-02-15T07:45:42.449Z,102932.95
2019-02-15T07:48:04.172Z,102926.98
2019-02-15T07:50:32.421Z,102932.70
2019-02-15T07:53:00.689Z,102933.27
2019-02-15T07:55:28.956Z,102934.47
2019-02-15T07:57:58.228Z,102931.70
2019-02-15T08:00:26.476Z,102931.67
2019-02-15T08:02:54.735Z,102929.48
2019-02-15T08:05:42.329Z,102932.73
2019-02-15T08:08:10.590Z,102932.73
2019-02-15T08:10:39.570Z,102927.20
2019-02-15T08:13:08.835Z,102925.56
2019-02-15T08:15:37.100Z,102928.52
2019-02-15T08:18:05.349Z,102929.11
2019-02-15T08:21:13.635Z,102923.44
2019-02-15T08:23:42.915Z,102928.23
2019-02-15T08:26:11.169Z,102928.16
2019-02-15T08:28:39.426Z,102931.27
2019-02-15T08:31:07.675Z,102921.69
2019-02-15T08:33:35.949Z,102917.31
2019-02-15T08:36:04.205Z,102907.06
2019-02-15T08:38:32.466Z,102902.10
2019-02-15T08:41:00.716Z,102901.34
2019-02-15T08:43:28.975Z,102902.36
2019-02-15T08:46:00.696Z,102897.66
2019-02-15T08:48:27.234Z,102888.69
2019-02-15T08:50:55.487Z,102894.78
2019-02-15T08:53:23.740Z,102906.97
2019-02-15T08:55:52.003Z,102909.58
2019-02-15T08:58:20.254Z,102904.49
2019-02-15T09:00:48.543Z,102897.59
2019-02-15T09:03:16.804Z,102899.81
2019-02-15T09:05:45.076Z,102896.83
2019-02-15T09:08:13.349Z,102898.58
2019-02-15T09:10:41.614Z,102901.64
2019-02-15T09:13:09.874Z,102898.25
2019-02-15T09:15:38.118Z,102890.47
2019-02-15T09:18:06.371Z,102895.70
2019-02-15T09:20:34.622Z,102907.37
2019-02-15T09:23:02.884Z,102894.86
2019-02-15T09:25:31.130Z,102892.69
2019-02-15T09:28:18.509Z,102897.50
2019-02-15T09:33:25.773Z,102890.98
2019-02-15T09:35:54.021Z,102878.83
2019-02-15T09:38:22.267Z,102877.48
2019-02-15T09:40:50.521Z,102879.16
2019-02-15T09:43:18.774Z,102874.74
2019-02-15T09:45:47.025Z,102872.12
2019-02-15T09:48:15.277Z,102869.02
2019-02-15T09:50:43.546Z,102868.12
2019-02-15T09:53:11.797Z,102877.14
2019-02-15T09:55:40.044Z,102883.09
2019-02-15T09:58:08.298Z,102879.61
2019-02-15T10:00:36.558Z,102892.60
2019-02-15T10:03:04.798Z,102893.02
2019-02-15T10:05:33.065Z,102895.57
2019-02-15T10:08:01.310Z,102898.95
2019-02-15T10:10:29.556Z,102894.45
2019-02-15T10:12:57.811Z,102891.28
2019-02-15T10:15:26.056Z,102895.13
2019-02-15T10:17:54.312Z,102890.22
2019-02-15T10:20:22.583Z,102895.87
2019-02-15T10:22:50.833Z,102882.70
2019-02-15T10:25:19.089Z,102887.23
2019-02-15T10:27:47.337Z,102887.61
2019-02-15T10:30:15.597Z,102885.47
2019-02-15T10:32:43.835Z,102869.30
2019-02-15T10:35:12.089Z,102882.81
2019-02-15T10:37:40.410Z,102871.34
2019-02-15T10:40:41.940Z,102881.99
2019-02-15T10:43:10.207Z,102875.77
2019-02-15T10:45:38.452Z,102875.53
2019-02-15T10:48:06.694Z,102877.13
2019-02-15T10:50:34.964Z,102864.34
2019-02-15T10:53:03.224Z,102864.66
2019-02-15T10:55:31.471Z,102868.70
2019-02-15T10:57:59.738Z,102870.80
2019-02-15T11:00:27.995Z,102860.45
2019-02-15T11:02:56.259Z,102859.67
2019-02-15T11:05:24.537Z,102859.33
2019-02-15T11:07:52.789Z,102852.06
2019-02-15T11:10:21.043Z,102860.66
2019-02-15T11:12:49.297Z,102862.60
2019-02-15T11:15:57.587Z,102860.67
2019-02-15T11:18:25.843Z,102853.09
2019-02-15T11:20:54.100Z,102846.58
2019-02-15T11:23:22.348Z,102846.74
2019-02-15T11:25:50.600Z,102843.23
2019-02-15T11:28:18.853Z,102845.53
2019-02-15T11:30:47.108Z,102841.73
2019-02-15T11:33:15.368Z,102847.25
2019-02-15T11:35:43.635Z,102844.97
2019-02-15T11:38:11.896Z,102837.11
2019-02-15T11:40:40.149Z,102831.08
2019-02-15T11:43:08.408Z,102831.05
2019-02-15T11:45:36.675Z,102817.45
2019-02-15T11:48:04.936Z,102826.22
2019-02-15T11:50:33.207Z,102810.03
2019-02-15T11:53:01.451Z,102811.23
2019-02-15T11:55:29.731Z,102805.09
2019-02-15T11:58:38.017Z,102795.69
2019-02-15T12:03:45.225Z,102793.75
2019-02-15T12:06:13.478Z,102790.38
2019-02-15T12:08:41.744Z,102789.28
2019-02-15T12:11:11.789Z,102783.41
2019-02-15T12:13:40.510Z,102779.53
2019-02-15T12:16:08.757Z,102781.98
2019-02-15T12:18:37.018Z,102779.94
2019-02-15T12:21:05.299Z,102780.77
2019-02-15T12:23:33.542Z,102781.30
2019-02-15T12:26:01.804Z,102777.42
2019-02-15T12:28:30.667Z,102771.06
2019-02-15T12:31:00.037Z,102764.90
2019-02-15T12:33:28.320Z,102765.39
2019-02-15T12:35:56.546Z,102761.09
2019-02-15T12:38:24.798Z,102767.77
2019-02-15T12:40:53.062Z,102763.35
2019-02-15T12:43:21.310Z,102758.00
2019-02-15T12:45:49.581Z,102766.73
2019-02-15T12:48:17.839Z,102759.52
2019-02-15T12:50:46.095Z,102758.52
2019-02-15T12:53:14.357Z,102754.72
2019-02-15T12:55:42.615Z,102751.27
2019-02-15T12:58:10.879Z,102745.85
2019-02-15T13:00:39.159Z,102742.58
2019-02-15T13:03:07.389Z,102744.19
2019-02-15T13:05:35.648Z,102735.32
2019-02-15T13:08:03.906Z,102740.16
2019-02-15T13:13:11.121Z,102747.63
2019-02-15T13:15:39.373Z,102727.38
2019-02-15T13:18:07.618Z,102728.05
2019-02-15T13:20:35.888Z,102724.70
2019-02-15T13:23:04.129Z,102724.16
2019-02-15T13:25:36.834Z,102715.55
2019-02-15T13:28:02.368Z,102721.60
2019-02-15T13:30:30.642Z,102724.32
2019-02-15T13:32:58.891Z,102725.94
2019-02-15T13:35:27.145Z,102721.59
2019-02-15T13:37:55.409Z,102718.10
2019-02-15T13:40:23.664Z,102717.99
2019-02-15T13:42:51.932Z,102715.77
2019-02-15T13:45:20.187Z,102709.34
2019-02-15T13:47:48.431Z,102704.60
2019-02-15T13:50:56.717Z,102698.34
2019-02-15T13:53:24.972Z,102701.47
2019-02-15T13:55:53.219Z,102702.38
2019-02-15T13:58:21.652Z,102695.30
2019-02-15T14:00:49.926Z,102701.36
2019-02-15T14:03:18.179Z,102696.61
2019-02-15T14:05:46.428Z,102693.55
2019-02-15T14:08:14.677Z,102686.19
2019-02-15T14:10:42.939Z,102689.00
2019-02-15T14:13:11.195Z,102686.94
2019-02-15T14:15:39.467Z,102675.39
2019-02-15T14:18:07.715Z,102676.38
2019-02-15T14:20:35.981Z,102678.35
2019-02-15T14:23:04.233Z,102672.30
2019-02-15T14:25:32.489Z,102667.95
2019-02-15T14:28:00.748Z,102667.04
2019-02-15T14:30:28.999Z,102667.73
2019-02-15T14:32:57.253Z,102665.67
2019-02-15T14:35:25.503Z,102661.34
2019-02-15T14:37:53.770Z,102656.14
2019-02-15T14:40:22.012Z,102653.86
2019-02-15T14:42:50.291Z,102652.13
2019-02-15T14:45:18.534Z,102650.53
2019-02-15T14:47:54.520Z,102639.86
2019-02-15T14:50:16.768Z,102636.78
2019-02-15T14:52:45.015Z,102637.59
2019-02-15T14:55:13.279Z,102630.11
2019-02-15T14:57:41.533Z,102626.18
2019-02-15T15:00:49.828Z,102625.52
2019-02-15T15:03:18.080Z,102624.36
2019-02-15T15:05:46.353Z,102622.38
2019-02-15T15:08:14.603Z,102613.53
2019-02-15T15:10:42.863Z,102609.59
2019-02-15T15:13:11.134Z,102607.88
2019-02-15T15:15:39.391Z,102608.78
2019-02-15T15:18:13.247Z,102612.98
2019-02-15T15:20:37.614Z,102591.30
2019-02-15T15:23:05.870Z,102601.67
2019-02-15T15:25:34.120Z,102596.92
2019-02-15T15:28:02.370Z,102589.34
2019-02-15T15:30:30.630Z,102585.05
2019-02-15T15:32:58.892Z,102587.69
2019-02-15T15:35:27.154Z,102584.70
2019-02-15T15:37:55.399Z,102578.45
2019-02-15T15:40:23.664Z,102569.47
2019-02-15T15:42:51.924Z,102571.01
2019-02-15T15:45:39.513Z,102569.20
2019-02-15T15:48:07.748Z,102567.73
2019-02-15T15:50:36.004Z,102563.45
2019-02-15T15:53:04.249Z,102562.09
2019-02-15T15:55:32.521Z,102561.55
2019-02-15T15:58:00.757Z,102560.93
2019-02-15T16:00:38.440Z,102558.41
2019-02-15T16:02:59.022Z,102560.58
2019-02-15T16:05:27.281Z,102557.59
2019-02-15T16:07:55.560Z,102552.80
2019-02-15T16:10:23.807Z,102553.78
2019-02-15T16:12:52.054Z,102553.38
2019-02-15T16:15:20.319Z,102551.61
2019-02-15T16:17:48.587Z,102546.38
2019-02-15T16:20:16.835Z,102552.59
2019-02-15T16:22:45.091Z,102550.00
2019-02-15T16:25:13.419Z,102550.78
2019-02-15T16:27:43.499Z,102543.13
2019-02-15T16:30:30.998Z,102541.82
2019-02-15T16:32:59.247Z,102539.23
2019-02-15T16:35:27.510Z,102542.75
2019-02-15T16:37:55.768Z,102540.77
2019-02-15T16:41:04.535Z,102538.69
2019-02-15T16:43:32.873Z,102542.07
2019-02-15T16:46:20.725Z,102543.72
2019-02-15T16:48:48.976Z,102541.48
2019-02-15T16:51:17.242Z,102540.36
2019-02-15T16:53:45.489Z,102541.64
2019-02-15T16:56:14.012Z,102538.97
2019-02-15T16:58:42.261Z,102548.78
2019-02-15T17:01:10.503Z,102551.15
2019-02-15T17:03:39.395Z,102550.20
2019-02-15T17:06:07.663Z,102547.33
2019-02-15T17:08:35.909Z,102548.59
2019-02-15T17:11:04.170Z,102548.85
2019-02-15T17:13:32.424Z,102549.30
2019-02-15T17:16:00.668Z,102543.66
2019-02-15T17:18:28.924Z,102542.89
2019-02-15T17:20:57.173Z,102541.25
2019-02-15T17:23:25.424Z,102540.70
2019-02-15T17:25:53.665Z,102537.81
2019-02-15T17:28:21.919Z,102538.73
2019-02-15T17:30:50.165Z,102535.58
2019-02-15T17:33:18.414Z,102534.90
2019-02-15T17:35:46.658Z,102528.94
2019-02-15T17:38:27.853Z,102523.09
2019-02-15T17:40:56.110Z,102523.09
2019-02-15T17:43:24.453Z,102517.48
2019-02-15T17:48:41.673Z,102514.97
2019-02-15T17:51:09.913Z,102515.91
2019-02-15T17:53:39.016Z,102513.94
2019-02-15T17:56:07.260Z,102512.78
2019-02-15T17:58:35.506Z,102501.66
2019-02-15T18:01:03.762Z,102502.14
2019-02-15T18:03:32.006Z,102494.11
2019-02-15T18:06:00.261Z,102492.06
2019-02-15T18:08:28.506Z,102491.97
2019-02-15T18:10:58.633Z,102494.84
2019-02-15T18:13:26.755Z,102481.05
2019-02-15T18:15:55.070Z,102475.11
2019-02-15T18:18:23.271Z,102473.58
2019-02-15T18:20:51.547Z,102482.22
2019-02-15T18:23:19.808Z,102480.73
2019-02-15T18:25:48.062Z,102481.21
2019-02-15T18:28:16.329Z,102483.86
2019-02-15T18:30:44.561Z,102486.47
2019-02-15T18:33:12.819Z,102482.94
2019-02-15T18:35:41.076Z,102482.05
2019-02-15T18:38:09.325Z,102481.75
2019-02-15T18:40:37.566Z,102482.20
2019-02-15T18:43:05.827Z,102478.38
2019-02-15T18:45:34.057Z,102472.81
2019-02-15T18:48:02.306Z,102472.34
2019-02-15T18:50:30.559Z,102470.56
2019-02-15T18:52:58.837Z,102470.89
2019-02-15T18:55:27.055Z,102467.64
2019-02-15T18:57:55.305Z,102465.44
2019-02-15T19:00:23.565Z,102461.95
2019-02-15T19:03:31.854Z,102466.63
2019-02-15T19:06:00.114Z,102463.87
2019-02-15T19:08:28.368Z,102456.19
2019-02-15T19:10:56.615Z,102450.31
2019-02-15T19:13:24.856Z,102450.83
2019-02-15T19:15:53.122Z,102453.76
2019-02-15T19:18:21.367Z,102452.48
2019-02-15T19:20:49.614Z,102448.75
2019-02-15T19:23:17.863Z,102445.35
2019-02-15T19:25:46.115Z,102446.61
2019-02-15T19:28:14.380Z,102453.78
2019-02-15T19:30:42.621Z,102448.76
2019-02-15T19:33:10.873Z,102450.87
2019-02-15T19:35:39.161Z,102440.86
2019-02-15T19:38:07.375Z,102435.75
2019-02-15T19:40:35.613Z,102439.17
2019-02-15T19:43:43.906Z,102433.09
2019-02-15T19:46:12.156Z,102426.56
2019-02-15T19:48:40.417Z,102424.05
2019-02-15T19:51:08.656Z,102429.28
2019-02-15T19:53:36.906Z,102429.73
2019-02-15T19:56:05.161Z,102428.02
2019-02-15T19:58:33.416Z,102422.95
2019-02-15T20:01:01.669Z,102424.77
2019-02-15T20:03:29.950Z,102420.09
2019-02-15T20:05:58.215Z,102421.86
2019-02-15T20:08:26.433Z,102419.70
2019-02-15T20:10:54.702Z,102419.31
2019-02-15T20:13:22.956Z,102412.93
2019-02-15T20:15:51.197Z,102418.16
2019-02-15T20:18:19.444Z,102409.97
2019-02-15T20:20:47.706Z,102411.64
2019-02-15T20:23:15.951Z,102412.12
2019-02-15T20:25:44.214Z,102405.67
2019-02-15T20:28:14.313Z,102407.44
2019-02-15T20:30:42.453Z,102401.50
2019-02-15T20:33:10.695Z,102393.27
2019-02-15T20:35:38.941Z,102394.15
2019-02-15T20:38:07.182Z,102395.53
2019-02-15T20:40:35.440Z,102392.91
2019-02-15T20:43:03.711Z,102384.70
2019-02-15T20:45:31.955Z,102380.77
2019-02-15T20:48:00.222Z,102382.48
2019-02-15T20:50:30.167Z,102389.91
2019-02-15T20:52:58.405Z,102386.62
2019-02-15T20:55:26.691Z,102380.55
2019-02-15T20:57:54.901Z,102379.66
2019-02-15T21:01:03.199Z,102384.44
2019-02-15T21:03:31.454Z,102377.88
2019-02-15T21:05:59.746Z,102374.73
2019-02-15T21:08:27.983Z,102366.90
2019-02-15T21:10:56.292Z,102368.19
2019-02-15T21:13:24.517Z,102363.02
2019-02-15T21:15:52.766Z,102363.10
2019-02-15T21:18:21.030Z,102360.09
2019-02-15T21:20:49.282Z,102354.48
2019-02-15T21:23:17.533Z,102355.77
2019-02-15T21:25:45.795Z,102354.38
2019-02-15T21:28:14.271Z,102351.02
2019-02-15T21:30:42.519Z,102344.08
2019-02-15T21:33:10.766Z,102348.01
2019-02-15T21:35:39.040Z,102338.03
2019-02-15T21:38:07.288Z,102336.70
2019-02-15T21:40:35.537Z,102337.12
2019-02-15T21:43:03.794Z,102328.06
2019-02-15T21:45:32.059Z,102327.60
2019-02-15T21:48:00.321Z,102327.27
2019-02-15T21:50:28.564Z,102323.98
2019-02-15T21:52:56.814Z,102320.12
2019-02-15T21:55:25.078Z,102316.69
2019-02-15T21:58:01.005Z,102318.94
2019-02-15T22:00:56.642Z,102324.20
2019-02-15T22:03:24.887Z,102327.70
2019-02-15T22:05:53.158Z,102322.63
2019-02-15T22:08:21.400Z,102319.91
2019-02-15T22:10:49.638Z,102318.77
2019-02-15T22:13:17.887Z,102316.62
2019-02-15T22:15:46.133Z,102312.19
2019-02-15T22:18:14.382Z,102318.23
2019-02-15T22:20:42.632Z,102313.02
2019-02-15T22:23:10.872Z,102313.48
2019-02-15T22:25:39.158Z,102314.89
2019-02-15T22:28:07.399Z,102312.70
2019-02-15T22:30:35.653Z,102314.52
2019-02-15T22:33:03.900Z,102312.38
2019-02-15T22:35:32.204Z,102312.39
2019-02-15T22:38:00.387Z,102314.22
2019-02-15T22:40:48.441Z,102318.53
2019-02-15T22:43:50.200Z,102312.91
2019-02-15T22:46:18.448Z,102310.28
2019-02-15T22:48:46.692Z,102305.12
2019-02-15T22:51:14.957Z,102302.64
2019-02-15T22:53:43.232Z,102305.67
2019-02-15T22:56:11.476Z,102304.01
2019-02-15T22:58:39.731Z,102300.13
2019-02-15T23:01:48.016Z,102295.84
2019-02-15T23:04:16.268Z,102296.23
2019-02-15T23:06:44.546Z,102284.18
2019-02-15T23:09:52.834Z,102289.44
2019-02-15T23:12:21.080Z,102282.50
2019-02-15T23:14:49.331Z,102276.88
2019-02-15T23:17:17.592Z,102270.40
2019-02-15T23:19:45.841Z,102271.59
2019-02-15T23:22:14.086Z,102269.53
2019-02-15T23:24:42.348Z,102263.90
2019-02-15T23:27:10.591Z,102263.94
2019-02-15T23:29:38.853Z,102258.72
2019-02-15T23:32:07.097Z,102261.34
2019-02-15T23:34:35.343Z,102262.23
2019-02-15T23:37:04.165Z,102261.86
2019-02-15T23:39:33.572Z,102260.20
2019-02-15T23:42:01.816Z,102268.42
2019-02-15T23:47:19.024Z,102260.14
2019-02-15T23:49:47.277Z,102260.55
2019-02-15T23:52:15.515Z,102259.67
2019-02-15T23:54:43.765Z,102252.83
2019-02-15T23:57:12.049Z,102255.02
2019-02-15T23:59:40.301Z,102253.73
